sensor_id;sensor_type;location;lat;lon;timestamp;P1;durP1;ratioP1;P2;durP2;ratioP2
61322;SDS011;47203;48.428;11.974;2023-02-11T00:02:00;33.00;;;19.95;;
61322;SDS011;47203;48.428;11.974;2023-02-11T00:04:05;29.77;;;20.35;;
61322;SDS011;47203;48.428;11.974;2023-02-11T00:06:13;33.90;;;21.42;;
61322;SDS011;47203;48.428;11.974;2023-02-11T00:08:18;33.25;;;20.67;;
61322;SDS011;47203;48.428;11.974;2023-02-11T00:10:22;30.88;;;20.98;;
61322;SDS011;47203;48.428;11.974;2023-02-11T00:12:27;35.28;;;21.25;;
61322;SDS011;47203;48.428;11.974;2023-02-11T00:14:32;30.92;;;20.85;;
61322;SDS011;47203;48.428;11.974;2023-02-11T00:16:37;34.67;;;21.02;;
61322;SDS011;47203;48.428;11.974;2023-02-11T00:18:42;33.78;;;20.42;;
61322;SDS011;47203;48.428;11.974;2023-02-11T00:20:47;30.95;;;20.63;;
61322;SDS011;47203;48.428;11.974;2023-02-11T00:22:54;28.20;;;18.58;;
61322;SDS011;47203;48.428;11.974;2023-02-11T00:24:59;29.33;;;19.52;;
61322;SDS011;47203;48.428;11.974;2023-02-11T00:27:04;34.42;;;19.67;;
61322;SDS011;47203;48.428;11.974;2023-02-11T00:29:09;29.23;;;19.60;;
61322;SDS011;47203;48.428;11.974;2023-02-11T00:31:14;34.60;;;20.33;;
61322;SDS011;47203;48.428;11.974;2023-02-11T00:33:21;31.10;;;20.50;;
61322;SDS011;47203;48.428;11.974;2023-02-11T00:35:27;30.58;;;20.13;;
61322;SDS011;47203;48.428;11.974;2023-02-11T00:37:33;28.80;;;19.10;;
61322;SDS011;47203;48.428;11.974;2023-02-11T00:39:41;30.55;;;21.25;;
61322;SDS011;47203;48.428;11.974;2023-02-11T00:41:46;31.60;;;19.48;;
61322;SDS011;47203;48.428;11.974;2023-02-11T00:43:51;26.38;;;18.58;;
61322;SDS011;47203;48.428;11.974;2023-02-11T00:45:57;31.98;;;20.27;;
61322;SDS011;47203;48.428;11.974;2023-02-11T00:48:04;29.02;;;19.98;;
61322;SDS011;47203;48.428;11.974;2023-02-11T00:50:09;29.77;;;20.25;;
61322;SDS011;47203;48.428;11.974;2023-02-11T00:52:14;28.50;;;19.35;;
61322;SDS011;47203;48.428;11.974;2023-02-11T00:54:18;29.85;;;18.95;;
61322;SDS011;47203;48.428;11.974;2023-02-11T00:56:26;26.67;;;18.00;;
61322;SDS011;47203;48.428;11.974;2023-02-11T00:58:30;25.98;;;17.80;;
61322;SDS011;47203;48.428;11.974;2023-02-11T01:00:35;27.98;;;17.95;;
61322;SDS011;47203;48.428;11.974;2023-02-11T01:02:40;27.88;;;18.08;;
61322;SDS011;47203;48.428;11.974;2023-02-11T01:04:45;27.65;;;18.05;;
61322;SDS011;47203;48.428;11.974;2023-02-11T01:06:49;27.13;;;17.13;;
61322;SDS011;47203;48.428;11.974;2023-02-11T01:08:55;27.75;;;19.27;;
61322;SDS011;47203;48.428;11.974;2023-02-11T01:11:01;26.85;;;17.65;;
61322;SDS011;47203;48.428;11.974;2023-02-11T01:13:09;28.33;;;19.10;;
61322;SDS011;47203;48.428;11.974;2023-02-11T01:15:15;29.17;;;18.80;;
61322;SDS011;47203;48.428;11.974;2023-02-11T01:17:23;29.05;;;18.33;;
61322;SDS011;47203;48.428;11.974;2023-02-11T01:19:28;26.15;;;17.88;;
61322;SDS011;47203;48.428;11.974;2023-02-11T01:21:32;28.20;;;17.30;;
61322;SDS011;47203;48.428;11.974;2023-02-11T01:23:37;25.83;;;18.25;;
61322;SDS011;47203;48.428;11.974;2023-02-11T01:25:42;31.77;;;18.77;;
61322;SDS011;47203;48.428;11.974;2023-02-11T01:27:46;26.58;;;17.67;;
61322;SDS011;47203;48.428;11.974;2023-02-11T01:29:54;27.17;;;17.92;;
61322;SDS011;47203;48.428;11.974;2023-02-11T01:31:59;26.67;;;17.25;;
61322;SDS011;47203;48.428;11.974;2023-02-11T01:34:04;28.13;;;16.40;;
61322;SDS011;47203;48.428;11.974;2023-02-11T01:36:11;29.88;;;18.48;;
61322;SDS011;47203;48.428;11.974;2023-02-11T01:38:16;25.65;;;17.10;;
61322;SDS011;47203;48.428;11.974;2023-02-11T01:40:23;24.75;;;16.48;;
61322;SDS011;47203;48.428;11.974;2023-02-11T01:42:28;27.83;;;17.38;;
61322;SDS011;47203;48.428;11.974;2023-02-11T01:44:34;28.40;;;17.40;;
61322;SDS011;47203;48.428;11.974;2023-02-11T01:46:43;27.13;;;17.90;;
61322;SDS011;47203;48.428;11.974;2023-02-11T01:48:49;28.00;;;17.02;;
61322;SDS011;47203;48.428;11.974;2023-02-11T01:50:58;27.70;;;16.85;;
61322;SDS011;47203;48.428;11.974;2023-02-11T01:53:06;27.55;;;16.85;;
61322;SDS011;47203;48.428;11.974;2023-02-11T01:55:25;29.38;;;17.95;;
61322;SDS011;47203;48.428;11.974;2023-02-11T01:57:44;27.77;;;16.98;;
61322;SDS011;47203;48.428;11.974;2023-02-11T01:59:56;27.67;;;16.58;;
61322;SDS011;47203;48.428;11.974;2023-02-11T02:02:16;26.35;;;17.38;;
61322;SDS011;47203;48.428;11.974;2023-02-11T02:04:25;25.00;;;16.02;;
61322;SDS011;47203;48.428;11.974;2023-02-11T02:06:33;24.92;;;16.20;;
61322;SDS011;47203;48.428;11.974;2023-02-11T02:08:41;25.85;;;16.40;;
61322;SDS011;47203;48.428;11.974;2023-02-11T02:10:51;25.75;;;15.32;;
61322;SDS011;47203;48.428;11.974;2023-02-11T02:12:57;26.33;;;16.75;;
61322;SDS011;47203;48.428;11.974;2023-02-11T02:15:10;23.13;;;16.20;;
61322;SDS011;47203;48.428;11.974;2023-02-11T02:17:31;31.88;;;18.25;;
61322;SDS011;47203;48.428;11.974;2023-02-11T02:25:00;28.00;;;17.08;;
61322;SDS011;47203;48.428;11.974;2023-02-11T02:27:28;25.95;;;14.82;;
61322;SDS011;47203;48.428;11.974;2023-02-11T02:29:45;24.92;;;15.57;;
61322;SDS011;47203;48.428;11.974;2023-02-11T02:34:39;27.83;;;15.98;;
61322;SDS011;47203;48.428;11.974;2023-02-11T02:36:53;24.38;;;14.93;;
61322;SDS011;47203;48.428;11.974;2023-02-11T02:41:11;22.25;;;13.98;;
61322;SDS011;47203;48.428;11.974;2023-02-11T02:43:19;21.48;;;13.93;;
61322;SDS011;47203;48.428;11.974;2023-02-11T02:45:25;23.50;;;14.55;;
61322;SDS011;47203;48.428;11.974;2023-02-11T02:47:33;22.25;;;13.88;;
61322;SDS011;47203;48.428;11.974;2023-02-11T02:49:38;21.38;;;14.85;;
61322;SDS011;47203;48.428;11.974;2023-02-11T02:54:24;21.70;;;13.43;;
61322;SDS011;47203;48.428;11.974;2023-02-11T02:56:43;22.23;;;13.18;;
61322;SDS011;47203;48.428;11.974;2023-02-11T03:01:30;23.30;;;13.35;;
61322;SDS011;47203;48.428;11.974;2023-02-11T03:03:47;18.38;;;12.82;;
61322;SDS011;47203;48.428;11.974;2023-02-11T03:06:00;21.45;;;12.82;;
61322;SDS011;47203;48.428;11.974;2023-02-11T03:08:10;19.98;;;13.20;;
61322;SDS011;47203;48.428;11.974;2023-02-11T03:10:20;18.98;;;12.88;;
61322;SDS011;47203;48.428;11.974;2023-02-11T03:12:29;19.13;;;12.85;;
61322;SDS011;47203;48.428;11.974;2023-02-11T03:14:34;20.02;;;12.93;;
61322;SDS011;47203;48.428;11.974;2023-02-11T03:16:41;16.88;;;11.05;;
61322;SDS011;47203;48.428;11.974;2023-02-11T03:18:51;20.55;;;12.68;;
61322;SDS011;47203;48.428;11.974;2023-02-11T03:21:09;19.70;;;12.50;;
61322;SDS011;47203;48.428;11.974;2023-02-11T03:23:15;17.73;;;12.55;;
61322;SDS011;47203;48.428;11.974;2023-02-11T03:25:26;16.77;;;12.25;;
61322;SDS011;47203;48.428;11.974;2023-02-11T03:27:38;17.33;;;11.63;;
61322;SDS011;47203;48.428;11.974;2023-02-11T03:29:49;17.10;;;11.30;;
61322;SDS011;47203;48.428;11.974;2023-02-11T03:32:00;18.00;;;12.32;;
61322;SDS011;47203;48.428;11.974;2023-02-11T03:34:16;16.88;;;10.88;;
61322;SDS011;47203;48.428;11.974;2023-02-11T03:36:28;19.02;;;11.60;;
61322;SDS011;47203;48.428;11.974;2023-02-11T03:38:41;16.55;;;11.23;;
61322;SDS011;47203;48.428;11.974;2023-02-11T03:40:51;17.00;;;11.15;;
61322;SDS011;47203;48.428;11.974;2023-02-11T03:42:59;16.00;;;10.45;;
61322;SDS011;47203;48.428;11.974;2023-02-11T03:45:09;14.13;;;10.52;;
61322;SDS011;47203;48.428;11.974;2023-02-11T03:47:17;16.67;;;10.45;;
61322;SDS011;47203;48.428;11.974;2023-02-11T03:49:29;13.07;;;9.55;;
61322;SDS011;47203;48.428;11.974;2023-02-11T03:51:37;16.50;;;9.45;;
61322;SDS011;47203;48.428;11.974;2023-02-11T03:53:42;17.35;;;11.43;;
61322;SDS011;47203;48.428;11.974;2023-02-11T03:55:50;16.52;;;11.05;;
61322;SDS011;47203;48.428;11.974;2023-02-11T03:57:57;16.58;;;10.55;;
61322;SDS011;47203;48.428;11.974;2023-02-11T04:00:03;14.73;;;9.13;;
61322;SDS011;47203;48.428;11.974;2023-02-11T04:02:12;15.27;;;9.40;;
61322;SDS011;47203;48.428;11.974;2023-02-11T04:04:17;14.90;;;10.23;;
61322;SDS011;47203;48.428;11.974;2023-02-11T04:06:24;16.20;;;10.73;;
61322;SDS011;47203;48.428;11.974;2023-02-11T04:08:29;17.48;;;11.57;;
61322;SDS011;47203;48.428;11.974;2023-02-11T04:10:34;17.60;;;11.15;;
61322;SDS011;47203;48.428;11.974;2023-02-11T04:12:39;17.35;;;11.07;;
61322;SDS011;47203;48.428;11.974;2023-02-11T04:14:43;18.95;;;11.32;;
61322;SDS011;47203;48.428;11.974;2023-02-11T04:16:49;13.50;;;10.02;;
61322;SDS011;47203;48.428;11.974;2023-02-11T04:18:53;16.83;;;10.90;;
61322;SDS011;47203;48.428;11.974;2023-02-11T04:20:58;14.98;;;9.95;;
61322;SDS011;47203;48.428;11.974;2023-02-11T04:23:05;17.65;;;10.85;;
61322;SDS011;47203;48.428;11.974;2023-02-11T04:25:10;17.17;;;10.95;;
61322;SDS011;47203;48.428;11.974;2023-02-11T04:27:15;14.80;;;10.65;;
61322;SDS011;47203;48.428;11.974;2023-02-11T04:29:20;16.40;;;10.55;;
61322;SDS011;47203;48.428;11.974;2023-02-11T04:31:25;14.80;;;10.00;;
61322;SDS011;47203;48.428;11.974;2023-02-11T04:33:30;17.67;;;11.30;;
61322;SDS011;47203;48.428;11.974;2023-02-11T04:35:35;18.50;;;12.02;;
61322;SDS011;47203;48.428;11.974;2023-02-11T04:37:39;17.17;;;10.93;;
61322;SDS011;47203;48.428;11.974;2023-02-11T04:39:47;18.10;;;10.85;;
61322;SDS011;47203;48.428;11.974;2023-02-11T04:41:52;17.25;;;11.02;;
61322;SDS011;47203;48.428;11.974;2023-02-11T04:43:56;17.02;;;10.60;;
61322;SDS011;47203;48.428;11.974;2023-02-11T04:46:01;20.73;;;12.80;;
61322;SDS011;47203;48.428;11.974;2023-02-11T04:48:06;21.23;;;13.77;;
61322;SDS011;47203;48.428;11.974;2023-02-11T04:50:11;25.70;;;15.32;;
61322;SDS011;47203;48.428;11.974;2023-02-11T04:52:16;33.97;;;18.88;;
61322;SDS011;47203;48.428;11.974;2023-02-11T04:54:20;28.08;;;17.02;;
61322;SDS011;47203;48.428;11.974;2023-02-11T04:56:28;27.52;;;16.63;;
61322;SDS011;47203;48.428;11.974;2023-02-11T04:58:32;25.88;;;16.65;;
61322;SDS011;47203;48.428;11.974;2023-02-11T05:00:37;24.10;;;14.98;;
61322;SDS011;47203;48.428;11.974;2023-02-11T05:02:42;19.20;;;13.55;;
61322;SDS011;47203;48.428;11.974;2023-02-11T05:04:46;20.45;;;13.95;;
61322;SDS011;47203;48.428;11.974;2023-02-11T05:06:51;26.30;;;13.02;;
61322;SDS011;47203;48.428;11.974;2023-02-11T05:08:59;18.05;;;12.98;;
61322;SDS011;47203;48.428;11.974;2023-02-11T05:11:03;17.30;;;11.93;;
61322;SDS011;47203;48.428;11.974;2023-02-11T05:13:11;20.83;;;13.23;;
61322;SDS011;47203;48.428;11.974;2023-02-11T05:15:16;20.85;;;12.27;;
61322;SDS011;47203;48.428;11.974;2023-02-11T05:17:20;18.75;;;12.45;;
61322;SDS011;47203;48.428;11.974;2023-02-11T05:19:25;19.63;;;12.82;;
61322;SDS011;47203;48.428;11.974;2023-02-11T05:21:32;18.73;;;12.73;;
61322;SDS011;47203;48.428;11.974;2023-02-11T05:23:37;19.42;;;12.55;;
61322;SDS011;47203;48.428;11.974;2023-02-11T05:25:42;19.40;;;13.60;;
61322;SDS011;47203;48.428;11.974;2023-02-11T05:27:47;17.98;;;11.65;;
61322;SDS011;47203;48.428;11.974;2023-02-11T05:29:54;19.70;;;12.38;;
61322;SDS011;47203;48.428;11.974;2023-02-11T05:31:59;17.42;;;12.25;;
61322;SDS011;47203;48.428;11.974;2023-02-11T05:34:03;16.15;;;11.25;;
61322;SDS011;47203;48.428;11.974;2023-02-11T05:36:09;20.15;;;12.93;;
61322;SDS011;47203;48.428;11.974;2023-02-11T05:38:17;18.35;;;12.23;;
61322;SDS011;47203;48.428;11.974;2023-02-11T05:40:21;20.40;;;12.00;;
61322;SDS011;47203;48.428;11.974;2023-02-11T05:42:26;17.38;;;11.85;;
61322;SDS011;47203;48.428;11.974;2023-02-11T05:44:31;16.05;;;10.63;;
61322;SDS011;47203;48.428;11.974;2023-02-11T05:46:38;19.48;;;12.15;;
61322;SDS011;47203;48.428;11.974;2023-02-11T05:48:43;23.70;;;12.18;;
61322;SDS011;47203;48.428;11.974;2023-02-11T05:50:48;14.40;;;10.80;;
61322;SDS011;47203;48.428;11.974;2023-02-11T05:52:53;18.60;;;11.63;;
61322;SDS011;47203;48.428;11.974;2023-02-11T05:54:58;18.85;;;11.93;;
61322;SDS011;47203;48.428;11.974;2023-02-11T05:57:03;17.40;;;11.50;;
61322;SDS011;47203;48.428;11.974;2023-02-11T05:59:08;17.98;;;12.45;;
61322;SDS011;47203;48.428;11.974;2023-02-11T06:01:12;17.80;;;11.15;;
61322;SDS011;47203;48.428;11.974;2023-02-11T06:03:20;17.20;;;11.55;;
61322;SDS011;47203;48.428;11.974;2023-02-11T06:05:24;15.07;;;10.50;;
61322;SDS011;47203;48.428;11.974;2023-02-11T06:07:29;17.60;;;12.20;;
61322;SDS011;47203;48.428;11.974;2023-02-11T06:09:35;16.00;;;11.45;;
61322;SDS011;47203;48.428;11.974;2023-02-11T06:11:41;13.98;;;11.07;;
61322;SDS011;47203;48.428;11.974;2023-02-11T06:13:45;15.23;;;11.57;;
61322;SDS011;47203;48.428;11.974;2023-02-11T06:15:56;16.67;;;11.02;;
61322;SDS011;47203;48.428;11.974;2023-02-11T06:18:02;18.13;;;10.93;;
61322;SDS011;47203;48.428;11.974;2023-02-11T06:20:10;16.90;;;11.63;;
61322;SDS011;47203;48.428;11.974;2023-02-11T06:22:16;17.73;;;11.60;;
61322;SDS011;47203;48.428;11.974;2023-02-11T06:24:21;17.15;;;10.40;;
61322;SDS011;47203;48.428;11.974;2023-02-11T06:26:46;17.25;;;9.75;;
61322;SDS011;47203;48.428;11.974;2023-02-11T06:28:50;16.33;;;10.55;;
61322;SDS011;47203;48.428;11.974;2023-02-11T06:30:55;14.93;;;10.18;;
61322;SDS011;47203;48.428;11.974;2023-02-11T06:33:00;15.35;;;10.77;;
61322;SDS011;47203;48.428;11.974;2023-02-11T06:35:05;17.10;;;10.80;;
61322;SDS011;47203;48.428;11.974;2023-02-11T06:37:15;15.63;;;10.55;;
61322;SDS011;47203;48.428;11.974;2023-02-11T06:39:20;16.52;;;10.45;;
61322;SDS011;47203;48.428;11.974;2023-02-11T06:41:25;18.55;;;11.90;;
61322;SDS011;47203;48.428;11.974;2023-02-11T06:43:29;18.42;;;11.57;;
61322;SDS011;47203;48.428;11.974;2023-02-11T06:45:34;14.23;;;11.50;;
61322;SDS011;47203;48.428;11.974;2023-02-11T06:47:39;17.38;;;12.40;;
61322;SDS011;47203;48.428;11.974;2023-02-11T06:49:44;17.20;;;10.98;;
61322;SDS011;47203;48.428;11.974;2023-02-11T06:51:49;17.58;;;12.68;;
61322;SDS011;47203;48.428;11.974;2023-02-11T06:53:56;16.50;;;11.55;;
61322;SDS011;47203;48.428;11.974;2023-02-11T06:56:01;15.10;;;10.68;;
61322;SDS011;47203;48.428;11.974;2023-02-11T06:58:07;17.90;;;11.63;;
61322;SDS011;47203;48.428;11.974;2023-02-11T07:00:13;15.30;;;10.50;;
61322;SDS011;47203;48.428;11.974;2023-02-11T07:02:19;15.40;;;10.55;;
61322;SDS011;47203;48.428;11.974;2023-02-11T07:04:23;16.13;;;10.40;;
61322;SDS011;47203;48.428;11.974;2023-02-11T07:06:28;14.35;;;9.73;;
61322;SDS011;47203;48.428;11.974;2023-02-11T07:08:34;16.58;;;10.02;;
61322;SDS011;47203;48.428;11.974;2023-02-11T07:10:43;15.85;;;10.90;;
61322;SDS011;47203;48.428;11.974;2023-02-11T07:12:48;12.80;;;8.65;;
61322;SDS011;47203;48.428;11.974;2023-02-11T07:14:54;13.50;;;9.32;;
61322;SDS011;47203;48.428;11.974;2023-02-11T07:16:59;13.73;;;11.02;;
61322;SDS011;47203;48.428;11.974;2023-02-11T07:19:05;19.77;;;12.80;;
61322;SDS011;47203;48.428;11.974;2023-02-11T07:21:10;18.25;;;13.18;;
61322;SDS011;47203;48.428;11.974;2023-02-11T07:23:17;21.88;;;12.00;;
61322;SDS011;47203;48.428;11.974;2023-02-11T07:25:22;19.33;;;11.73;;
61322;SDS011;47203;48.428;11.974;2023-02-11T07:27:29;15.15;;;10.27;;
61322;SDS011;47203;48.428;11.974;2023-02-11T07:29:34;17.13;;;11.82;;
61322;SDS011;47203;48.428;11.974;2023-02-11T07:31:39;17.55;;;11.15;;
61322;SDS011;47203;48.428;11.974;2023-02-11T07:33:43;14.13;;;10.60;;
61322;SDS011;47203;48.428;11.974;2023-02-11T07:35:49;17.52;;;10.40;;
61322;SDS011;47203;48.428;11.974;2023-02-11T07:37:54;17.85;;;10.13;;
61322;SDS011;47203;48.428;11.974;2023-02-11T07:39:58;15.90;;;10.50;;
61322;SDS011;47203;48.428;11.974;2023-02-11T07:42:03;16.55;;;10.27;;
61322;SDS011;47203;48.428;11.974;2023-02-11T07:44:11;17.77;;;10.40;;
61322;SDS011;47203;48.428;11.974;2023-02-11T07:46:17;14.50;;;9.55;;
61322;SDS011;47203;48.428;11.974;2023-02-11T07:48:23;13.57;;;9.55;;
61322;SDS011;47203;48.428;11.974;2023-02-11T07:50:28;17.08;;;10.30;;
61322;SDS011;47203;48.428;11.974;2023-02-11T07:52:32;15.07;;;9.43;;
61322;SDS011;47203;48.428;11.974;2023-02-11T07:54:37;14.15;;;9.45;;
61322;SDS011;47203;48.428;11.974;2023-02-11T07:56:42;15.63;;;9.88;;
61322;SDS011;47203;48.428;11.974;2023-02-11T07:58:47;14.35;;;9.23;;
61322;SDS011;47203;48.428;11.974;2023-02-11T08:00:54;14.23;;;8.65;;
61322;SDS011;47203;48.428;11.974;2023-02-11T08:03:04;17.58;;;9.35;;
61322;SDS011;47203;48.428;11.974;2023-02-11T08:05:09;13.38;;;8.48;;
61322;SDS011;47203;48.428;11.974;2023-02-11T08:07:14;14.05;;;9.35;;
61322;SDS011;47203;48.428;11.974;2023-02-11T08:09:19;13.95;;;9.77;;
61322;SDS011;47203;48.428;11.974;2023-02-11T08:11:25;15.27;;;10.50;;
61322;SDS011;47203;48.428;11.974;2023-02-11T08:13:31;14.65;;;9.30;;
61322;SDS011;47203;48.428;11.974;2023-02-11T08:15:35;15.38;;;9.85;;
61322;SDS011;47203;48.428;11.974;2023-02-11T08:17:43;13.88;;;9.30;;
61322;SDS011;47203;48.428;11.974;2023-02-11T08:19:48;14.80;;;10.30;;
61322;SDS011;47203;48.428;11.974;2023-02-11T08:21:53;16.77;;;10.48;;
61322;SDS011;47203;48.428;11.974;2023-02-11T08:24:01;17.58;;;10.90;;
61322;SDS011;47203;48.428;11.974;2023-02-11T08:26:07;12.02;;;8.90;;
61322;SDS011;47203;48.428;11.974;2023-02-11T08:28:13;13.52;;;9.50;;
61322;SDS011;47203;48.428;11.974;2023-02-11T08:30:18;15.25;;;10.45;;
61322;SDS011;47203;48.428;11.974;2023-02-11T08:32:26;14.27;;;9.20;;
61322;SDS011;47203;48.428;11.974;2023-02-11T08:34:34;16.77;;;9.23;;
61322;SDS011;47203;48.428;11.974;2023-02-11T08:36:39;15.18;;;8.48;;
61322;SDS011;47203;48.428;11.974;2023-02-11T08:38:46;12.00;;;8.73;;
61322;SDS011;47203;48.428;11.974;2023-02-11T08:40:51;11.75;;;8.50;;
61322;SDS011;47203;48.428;11.974;2023-02-11T08:42:56;12.68;;;8.40;;
61322;SDS011;47203;48.428;11.974;2023-02-11T08:45:00;11.73;;;8.18;;
61322;SDS011;47203;48.428;11.974;2023-02-11T08:47:05;13.68;;;8.10;;
61322;SDS011;47203;48.428;11.974;2023-02-11T08:49:10;11.93;;;7.90;;
61322;SDS011;47203;48.428;11.974;2023-02-11T08:51:18;9.98;;;7.18;;
61322;SDS011;47203;48.428;11.974;2023-02-11T08:53:24;11.80;;;8.80;;
61322;SDS011;47203;48.428;11.974;2023-02-11T08:55:29;13.68;;;9.02;;
61322;SDS011;47203;48.428;11.974;2023-02-11T08:57:34;11.52;;;8.57;;
61322;SDS011;47203;48.428;11.974;2023-02-11T08:59:38;13.25;;;8.93;;
61322;SDS011;47203;48.428;11.974;2023-02-11T09:01:43;12.18;;;7.85;;
61322;SDS011;47203;48.428;11.974;2023-02-11T09:03:48;11.88;;;8.35;;
61322;SDS011;47203;48.428;11.974;2023-02-11T09:05:53;12.07;;;7.97;;
61322;SDS011;47203;48.428;11.974;2023-02-11T09:08:01;13.02;;;7.70;;
61322;SDS011;47203;48.428;11.974;2023-02-11T09:10:06;12.15;;;9.00;;
61322;SDS011;47203;48.428;11.974;2023-02-11T09:12:11;14.95;;;9.23;;
61322;SDS011;47203;48.428;11.974;2023-02-11T09:14:16;14.00;;;9.38;;
61322;SDS011;47203;48.428;11.974;2023-02-11T09:16:24;16.00;;;11.40;;
61322;SDS011;47203;48.428;11.974;2023-02-11T09:18:30;14.32;;;9.07;;
61322;SDS011;47203;48.428;11.974;2023-02-11T09:20:36;14.82;;;8.90;;
61322;SDS011;47203;48.428;11.974;2023-02-11T09:22:40;13.48;;;9.57;;
61322;SDS011;47203;48.428;11.974;2023-02-11T09:24:48;13.27;;;8.93;;
61322;SDS011;47203;48.428;11.974;2023-02-11T09:26:53;18.80;;;10.35;;
61322;SDS011;47203;48.428;11.974;2023-02-11T09:28:58;14.63;;;9.60;;
61322;SDS011;47203;48.428;11.974;2023-02-11T09:31:04;24.98;;;10.52;;
61322;SDS011;47203;48.428;11.974;2023-02-11T09:33:09;12.57;;;8.88;;
61322;SDS011;47203;48.428;11.974;2023-02-11T09:35:15;14.63;;;8.70;;
61322;SDS011;47203;48.428;11.974;2023-02-11T09:37:20;18.15;;;8.50;;
61322;SDS011;47203;48.428;11.974;2023-02-11T09:39:24;14.90;;;9.77;;
61322;SDS011;47203;48.428;11.974;2023-02-11T09:41:45;16.52;;;9.70;;
61322;SDS011;47203;48.428;11.974;2023-02-11T09:44:01;12.63;;;8.15;;
61322;SDS011;47203;48.428;11.974;2023-02-11T09:46:09;15.80;;;10.02;;
61322;SDS011;47203;48.428;11.974;2023-02-11T09:48:19;13.82;;;8.85;;
61322;SDS011;47203;48.428;11.974;2023-02-11T09:50:27;14.35;;;9.35;;
61322;SDS011;47203;48.428;11.974;2023-02-11T09:52:36;12.48;;;9.05;;
61322;SDS011;47203;48.428;11.974;2023-02-11T09:54:48;13.95;;;9.23;;
61322;SDS011;47203;48.428;11.974;2023-02-11T09:57:00;13.95;;;9.18;;
61322;SDS011;47203;48.428;11.974;2023-02-11T09:59:09;12.88;;;8.88;;
61322;SDS011;47203;48.428;11.974;2023-02-11T10:01:20;12.20;;;9.32;;
61322;SDS011;47203;48.428;11.974;2023-02-11T10:03:39;13.75;;;8.98;;
